Flight Briefing for CMB832

Departure Arrival
Bagram Air Base (OAIX)
Click to view FAA NOTAMS
Ramstein Air Force Base (ETAR)
Click to view FAA NOTAMS
Departure Time Arrival Time
N/A N/A
Aircraft Distance
B767-300BDSF 2799nm
Departure METAR Arrival METAR
OAIX 260958Z 24006KT 9999 BKN300 19/M04 A3015 RMK AO2A SLP149 ETAR 260956Z AUTO 35007KT 9999 OVC038 07/00 A3046 RMK AO2 SLP326 T00670004 $
Suggested Route





View recent IFR Routes data
Notes
USTRANSCOM CONTRACT FLIGHT

Charts and Procedures

Charts for OAIX
No chart available
Charts for ETAR
No chart available

Windy.com Weather Map